sensor_id;sensor_type;location;lat;lon;timestamp;P1;durP1;ratioP1;P2;durP2;ratioP2
21810;SDS011;11067;48.788;9.208;2023-09-30T00:01:36;5.73;;;2.57;;
21810;SDS011;11067;48.788;9.208;2023-09-30T00:04:02;7.93;;;2.67;;
21810;SDS011;11067;48.788;9.208;2023-09-30T00:06:30;5.97;;;2.60;;
21810;SDS011;11067;48.788;9.208;2023-09-30T00:08:55;5.15;;;2.20;;
21810;SDS011;11067;48.788;9.208;2023-09-30T00:11:21;5.70;;;2.50;;
21810;SDS011;11067;48.788;9.208;2023-09-30T00:13:47;4.80;;;2.30;;
21810;SDS011;11067;48.788;9.208;2023-09-30T00:16:14;5.78;;;2.35;;
21810;SDS011;11067;48.788;9.208;2023-09-30T00:18:42;5.78;;;2.40;;
21810;SDS011;11067;48.788;9.208;2023-09-30T00:21:08;4.25;;;2.20;;
21810;SDS011;11067;48.788;9.208;2023-09-30T00:23:33;4.77;;;1.97;;
21810;SDS011;11067;48.788;9.208;2023-09-30T00:25:59;4.40;;;2.27;;
21810;SDS011;11067;48.788;9.208;2023-09-30T00:28:25;5.57;;;2.20;;
21810;SDS011;11067;48.788;9.208;2023-09-30T00:30:51;5.33;;;2.30;;
21810;SDS011;11067;48.788;9.208;2023-09-30T00:33:16;5.63;;;2.20;;
21810;SDS011;11067;48.788;9.208;2023-09-30T00:35:42;5.83;;;2.37;;
21810;SDS011;11067;48.788;9.208;2023-09-30T00:38:08;6.60;;;2.30;;
21810;SDS011;11067;48.788;9.208;2023-09-30T00:40:34;4.10;;;1.70;;
21810;SDS011;11067;48.788;9.208;2023-09-30T00:43:00;4.57;;;1.77;;
21810;SDS011;11067;48.788;9.208;2023-09-30T00:45:26;5.18;;;2.03;;
21810;SDS011;11067;48.788;9.208;2023-09-30T00:47:52;3.38;;;2.10;;
21810;SDS011;11067;48.788;9.208;2023-09-30T00:50:21;4.10;;;1.88;;
21810;SDS011;11067;48.788;9.208;2023-09-30T00:52:48;2.70;;;1.75;;
21810;SDS011;11067;48.788;9.208;2023-09-30T00:55:14;2.93;;;1.70;;
21810;SDS011;11067;48.788;9.208;2023-09-30T00:57:40;3.97;;;1.70;;
21810;SDS011;11067;48.788;9.208;2023-09-30T01:00:07;3.67;;;1.63;;
21810;SDS011;11067;48.788;9.208;2023-09-30T01:02:37;3.35;;;1.65;;
21810;SDS011;11067;48.788;9.208;2023-09-30T01:05:06;3.28;;;1.55;;
21810;SDS011;11067;48.788;9.208;2023-09-30T01:07:33;4.67;;;1.80;;
21810;SDS011;11067;48.788;9.208;2023-09-30T01:09:59;5.40;;;1.80;;
21810;SDS011;11067;48.788;9.208;2023-09-30T01:12:24;2.67;;;1.77;;
21810;SDS011;11067;48.788;9.208;2023-09-30T01:14:50;2.60;;;1.93;;
21810;SDS011;11067;48.788;9.208;2023-09-30T01:17:21;4.80;;;2.10;;
21810;SDS011;11067;48.788;9.208;2023-09-30T01:19:47;3.30;;;2.00;;
21810;SDS011;11067;48.788;9.208;2023-09-30T01:22:14;3.58;;;2.20;;
21810;SDS011;11067;48.788;9.208;2023-09-30T01:24:41;3.42;;;2.00;;
21810;SDS011;11067;48.788;9.208;2023-09-30T01:27:07;3.57;;;2.00;;
21810;SDS011;11067;48.788;9.208;2023-09-30T01:29:33;2.70;;;1.70;;
21810;SDS011;11067;48.788;9.208;2023-09-30T01:31:59;5.57;;;2.22;;
21810;SDS011;11067;48.788;9.208;2023-09-30T01:34:26;3.88;;;2.30;;
21810;SDS011;11067;48.788;9.208;2023-09-30T01:36:52;3.45;;;2.00;;
21810;SDS011;11067;48.788;9.208;2023-09-30T01:39:18;4.93;;;2.10;;
21810;SDS011;11067;48.788;9.208;2023-09-30T01:41:43;3.50;;;2.10;;
21810;SDS011;11067;48.788;9.208;2023-09-30T01:44:10;4.77;;;2.47;;
21810;SDS011;11067;48.788;9.208;2023-09-30T01:46:35;3.80;;;2.20;;
21810;SDS011;11067;48.788;9.208;2023-09-30T01:49:01;4.50;;;1.95;;
21810;SDS011;11067;48.788;9.208;2023-09-30T01:51:28;2.75;;;1.88;;
21810;SDS011;11067;48.788;9.208;2023-09-30T01:53:54;4.97;;;2.28;;
21810;SDS011;11067;48.788;9.208;2023-09-30T01:56:20;4.05;;;2.25;;
21810;SDS011;11067;48.788;9.208;2023-09-30T01:58:46;3.95;;;1.88;;
21810;SDS011;11067;48.788;9.208;2023-09-30T02:01:11;4.70;;;2.07;;
21810;SDS011;11067;48.788;9.208;2023-09-30T02:03:37;3.40;;;1.87;;
21810;SDS011;11067;48.788;9.208;2023-09-30T02:06:03;5.85;;;2.33;;
21810;SDS011;11067;48.788;9.208;2023-09-30T02:08:28;3.90;;;1.73;;
21810;SDS011;11067;48.788;9.208;2023-09-30T02:10:54;3.03;;;2.07;;
21810;SDS011;11067;48.788;9.208;2023-09-30T02:13:19;3.38;;;1.85;;
21810;SDS011;11067;48.788;9.208;2023-09-30T02:15:45;2.77;;;2.13;;
21810;SDS011;11067;48.788;9.208;2023-09-30T02:18:11;4.95;;;2.30;;
21810;SDS011;11067;48.788;9.208;2023-09-30T02:20:37;5.15;;;2.03;;
21810;SDS011;11067;48.788;9.208;2023-09-30T02:23:09;5.45;;;2.50;;
21810;SDS011;11067;48.788;9.208;2023-09-30T02:25:38;4.40;;;2.17;;
21810;SDS011;11067;48.788;9.208;2023-09-30T02:28:04;3.22;;;2.30;;
21810;SDS011;11067;48.788;9.208;2023-09-30T02:30:31;3.80;;;2.07;;
21810;SDS011;11067;48.788;9.208;2023-09-30T02:32:57;5.57;;;2.05;;
21810;SDS011;11067;48.788;9.208;2023-09-30T02:35:23;3.70;;;2.20;;
21810;SDS011;11067;48.788;9.208;2023-09-30T02:37:49;3.90;;;2.25;;
21810;SDS011;11067;48.788;9.208;2023-09-30T02:40:16;7.47;;;2.67;;
21810;SDS011;11067;48.788;9.208;2023-09-30T02:42:42;4.80;;;2.40;;
21810;SDS011;11067;48.788;9.208;2023-09-30T02:45:08;3.87;;;2.63;;
21810;SDS011;11067;48.788;9.208;2023-09-30T02:47:35;4.13;;;2.72;;
21810;SDS011;11067;48.788;9.208;2023-09-30T02:50:03;6.55;;;2.72;;
21810;SDS011;11067;48.788;9.208;2023-09-30T02:52:41;8.25;;;2.95;;
21810;SDS011;11067;48.788;9.208;2023-09-30T02:55:07;4.83;;;2.70;;
21810;SDS011;11067;48.788;9.208;2023-09-30T02:57:34;5.78;;;3.28;;
21810;SDS011;11067;48.788;9.208;2023-09-30T03:00:01;7.63;;;3.00;;
21810;SDS011;11067;48.788;9.208;2023-09-30T03:02:37;5.47;;;2.95;;
21810;SDS011;11067;48.788;9.208;2023-09-30T03:05:02;10.17;;;3.50;;
21810;SDS011;11067;48.788;9.208;2023-09-30T03:07:28;4.70;;;2.83;;
21810;SDS011;11067;48.788;9.208;2023-09-30T03:09:55;4.47;;;2.78;;
21810;SDS011;11067;48.788;9.208;2023-09-30T03:12:20;6.93;;;3.20;;
21810;SDS011;11067;48.788;9.208;2023-09-30T03:14:46;5.40;;;3.07;;
21810;SDS011;11067;48.788;9.208;2023-09-30T03:17:11;4.22;;;3.00;;
21810;SDS011;11067;48.788;9.208;2023-09-30T03:19:37;7.97;;;3.40;;
21810;SDS011;11067;48.788;9.208;2023-09-30T03:22:03;5.25;;;2.90;;
21810;SDS011;11067;48.788;9.208;2023-09-30T03:24:29;6.40;;;2.88;;
21810;SDS011;11067;48.788;9.208;2023-09-30T03:26:55;6.05;;;2.75;;
21810;SDS011;11067;48.788;9.208;2023-09-30T03:29:20;6.60;;;3.07;;
21810;SDS011;11067;48.788;9.208;2023-09-30T03:31:46;6.40;;;2.80;;
21810;SDS011;11067;48.788;9.208;2023-09-30T03:34:11;4.83;;;2.97;;
21810;SDS011;11067;48.788;9.208;2023-09-30T03:36:39;4.53;;;2.80;;
21810;SDS011;11067;48.788;9.208;2023-09-30T03:39:06;4.85;;;2.60;;
21810;SDS011;11067;48.788;9.208;2023-09-30T03:41:33;5.10;;;3.10;;
21810;SDS011;11067;48.788;9.208;2023-09-30T03:44:01;6.67;;;2.63;;
21810;SDS011;11067;48.788;9.208;2023-09-30T03:46:27;4.55;;;2.50;;
21810;SDS011;11067;48.788;9.208;2023-09-30T03:48:53;6.07;;;2.67;;
21810;SDS011;11067;48.788;9.208;2023-09-30T03:51:20;4.50;;;2.50;;
21810;SDS011;11067;48.788;9.208;2023-09-30T03:53:47;6.38;;;3.03;;
21810;SDS011;11067;48.788;9.208;2023-09-30T03:56:14;4.43;;;2.50;;
21810;SDS011;11067;48.788;9.208;2023-09-30T03:58:40;6.80;;;3.20;;
21810;SDS011;11067;48.788;9.208;2023-09-30T04:01:06;5.23;;;2.60;;
21810;SDS011;11067;48.788;9.208;2023-09-30T04:03:38;5.55;;;2.55;;
21810;SDS011;11067;48.788;9.208;2023-09-30T04:06:04;5.47;;;2.70;;
21810;SDS011;11067;48.788;9.208;2023-09-30T04:08:31;4.00;;;2.60;;
21810;SDS011;11067;48.788;9.208;2023-09-30T04:10:58;4.68;;;3.05;;
21810;SDS011;11067;48.788;9.208;2023-09-30T04:13:24;5.30;;;2.80;;
21810;SDS011;11067;48.788;9.208;2023-09-30T04:15:50;3.73;;;2.33;;
21810;SDS011;11067;48.788;9.208;2023-09-30T04:18:16;3.90;;;2.75;;
21810;SDS011;11067;48.788;9.208;2023-09-30T04:20:41;7.03;;;2.75;;
21810;SDS011;11067;48.788;9.208;2023-09-30T04:23:07;5.57;;;2.73;;
21810;SDS011;11067;48.788;9.208;2023-09-30T04:25:34;5.80;;;2.65;;
21810;SDS011;11067;48.788;9.208;2023-09-30T04:28:00;6.80;;;2.90;;
21810;SDS011;11067;48.788;9.208;2023-09-30T04:30:27;3.55;;;2.80;;
21810;SDS011;11067;48.788;9.208;2023-09-30T04:32:52;6.87;;;3.20;;
21810;SDS011;11067;48.788;9.208;2023-09-30T04:35:19;3.10;;;2.58;;
21810;SDS011;11067;48.788;9.208;2023-09-30T04:37:44;3.97;;;2.47;;
21810;SDS011;11067;48.788;9.208;2023-09-30T04:40:10;6.28;;;3.25;;
21810;SDS011;11067;48.788;9.208;2023-09-30T04:42:40;4.13;;;2.50;;
21810;SDS011;11067;48.788;9.208;2023-09-30T04:45:12;5.37;;;2.60;;
21810;SDS011;11067;48.788;9.208;2023-09-30T04:47:41;6.40;;;2.88;;
21810;SDS011;11067;48.788;9.208;2023-09-30T04:50:09;7.50;;;3.00;;
21810;SDS011;11067;48.788;9.208;2023-09-30T04:52:36;4.13;;;2.90;;
21810;SDS011;11067;48.788;9.208;2023-09-30T04:55:03;4.70;;;2.90;;
21810;SDS011;11067;48.788;9.208;2023-09-30T04:57:29;9.60;;;3.27;;
21810;SDS011;11067;48.788;9.208;2023-09-30T04:59:56;5.82;;;3.35;;
21810;SDS011;11067;48.788;9.208;2023-09-30T05:02:22;6.07;;;3.00;;
21810;SDS011;11067;48.788;9.208;2023-09-30T05:04:48;4.68;;;3.20;;
21810;SDS011;11067;48.788;9.208;2023-09-30T05:07:13;6.03;;;3.08;;
21810;SDS011;11067;48.788;9.208;2023-09-30T05:09:39;6.87;;;3.10;;
21810;SDS011;11067;48.788;9.208;2023-09-30T05:12:04;5.83;;;2.67;;
21810;SDS011;11067;48.788;9.208;2023-09-30T05:14:31;6.10;;;3.28;;
21810;SDS011;11067;48.788;9.208;2023-09-30T05:16:56;5.45;;;2.83;;
21810;SDS011;11067;48.788;9.208;2023-09-30T05:19:22;6.20;;;2.83;;
21810;SDS011;11067;48.788;9.208;2023-09-30T05:21:47;4.43;;;2.70;;
21810;SDS011;11067;48.788;9.208;2023-09-30T05:24:14;5.30;;;2.70;;
21810;SDS011;11067;48.788;9.208;2023-09-30T05:26:40;6.70;;;2.88;;
21810;SDS011;11067;48.788;9.208;2023-09-30T05:29:05;5.23;;;3.20;;
21810;SDS011;11067;48.788;9.208;2023-09-30T05:31:32;5.20;;;2.72;;
21810;SDS011;11067;48.788;9.208;2023-09-30T05:33:58;6.28;;;2.78;;
21810;SDS011;11067;48.788;9.208;2023-09-30T05:36:23;4.80;;;2.60;;
21810;SDS011;11067;48.788;9.208;2023-09-30T05:38:49;5.80;;;2.93;;
21810;SDS011;11067;48.788;9.208;2023-09-30T05:41:14;9.13;;;3.33;;
21810;SDS011;11067;48.788;9.208;2023-09-30T05:43:40;5.63;;;2.77;;
21810;SDS011;11067;48.788;9.208;2023-09-30T05:46:08;7.90;;;2.85;;
21810;SDS011;11067;48.788;9.208;2023-09-30T05:48:34;6.30;;;3.20;;
21810;SDS011;11067;48.788;9.208;2023-09-30T05:50:59;6.50;;;3.10;;
21810;SDS011;11067;48.788;9.208;2023-09-30T05:53:26;4.70;;;2.83;;
21810;SDS011;11067;48.788;9.208;2023-09-30T05:55:52;6.72;;;2.95;;
21810;SDS011;11067;48.788;9.208;2023-09-30T05:58:18;5.95;;;2.90;;
21810;SDS011;11067;48.788;9.208;2023-09-30T06:00:44;5.80;;;3.13;;
21810;SDS011;11067;48.788;9.208;2023-09-30T06:03:10;5.50;;;3.30;;
21810;SDS011;11067;48.788;9.208;2023-09-30T06:05:39;5.50;;;2.78;;
21810;SDS011;11067;48.788;9.208;2023-09-30T06:08:06;8.27;;;2.97;;
21810;SDS011;11067;48.788;9.208;2023-09-30T06:10:35;4.60;;;2.90;;
21810;SDS011;11067;48.788;9.208;2023-09-30T06:13:02;4.28;;;2.75;;
21810;SDS011;11067;48.788;9.208;2023-09-30T06:15:28;4.65;;;2.78;;
21810;SDS011;11067;48.788;9.208;2023-09-30T06:17:54;6.23;;;3.30;;
21810;SDS011;11067;48.788;9.208;2023-09-30T06:20:20;4.47;;;2.88;;
21810;SDS011;11067;48.788;9.208;2023-09-30T06:22:55;5.82;;;3.22;;
21810;SDS011;11067;48.788;9.208;2023-09-30T06:25:21;5.25;;;3.20;;
21810;SDS011;11067;48.788;9.208;2023-09-30T06:27:49;5.05;;;2.50;;
21810;SDS011;11067;48.788;9.208;2023-09-30T06:30:15;4.82;;;2.95;;
21810;SDS011;11067;48.788;9.208;2023-09-30T06:32:41;5.68;;;2.80;;
21810;SDS011;11067;48.788;9.208;2023-09-30T06:35:08;6.85;;;3.28;;
21810;SDS011;11067;48.788;9.208;2023-09-30T06:37:37;6.43;;;3.10;;
21810;SDS011;11067;48.788;9.208;2023-09-30T06:40:04;6.45;;;3.13;;
21810;SDS011;11067;48.788;9.208;2023-09-30T06:42:32;6.43;;;2.92;;
21810;SDS011;11067;48.788;9.208;2023-09-30T06:44:58;6.13;;;3.25;;
21810;SDS011;11067;48.788;9.208;2023-09-30T06:47:24;6.50;;;3.40;;
21810;SDS011;11067;48.788;9.208;2023-09-30T06:49:49;8.73;;;3.30;;
21810;SDS011;11067;48.788;9.208;2023-09-30T06:52:15;5.15;;;2.90;;
21810;SDS011;11067;48.788;9.208;2023-09-30T06:54:41;8.53;;;3.33;;
21810;SDS011;11067;48.788;9.208;2023-09-30T06:57:06;5.97;;;2.92;;
21810;SDS011;11067;48.788;9.208;2023-09-30T06:59:33;7.13;;;3.67;;
21810;SDS011;11067;48.788;9.208;2023-09-30T07:01:58;7.68;;;3.70;;
21810;SDS011;11067;48.788;9.208;2023-09-30T07:04:24;7.30;;;3.70;;
21810;SDS011;11067;48.788;9.208;2023-09-30T07:06:51;8.27;;;3.50;;
21810;SDS011;11067;48.788;9.208;2023-09-30T07:09:17;7.35;;;3.67;;
21810;SDS011;11067;48.788;9.208;2023-09-30T07:11:44;7.85;;;3.65;;
21810;SDS011;11067;48.788;9.208;2023-09-30T07:14:10;6.63;;;3.55;;
21810;SDS011;11067;48.788;9.208;2023-09-30T07:16:36;5.87;;;3.53;;
21810;SDS011;11067;48.788;9.208;2023-09-30T07:19:01;7.87;;;4.27;;
21810;SDS011;11067;48.788;9.208;2023-09-30T07:21:28;6.63;;;3.70;;
21810;SDS011;11067;48.788;9.208;2023-09-30T07:23:53;9.03;;;3.70;;
21810;SDS011;11067;48.788;9.208;2023-09-30T07:26:23;9.57;;;3.75;;
21810;SDS011;11067;48.788;9.208;2023-09-30T07:28:49;8.00;;;3.80;;
21810;SDS011;11067;48.788;9.208;2023-09-30T07:31:15;8.50;;;3.90;;
21810;SDS011;11067;48.788;9.208;2023-09-30T07:33:40;5.77;;;3.70;;
21810;SDS011;11067;48.788;9.208;2023-09-30T07:36:06;18.85;;;4.22;;
21810;SDS011;11067;48.788;9.208;2023-09-30T07:38:32;7.30;;;3.17;;
21810;SDS011;11067;48.788;9.208;2023-09-30T07:40:59;8.68;;;3.58;;
21810;SDS011;11067;48.788;9.208;2023-09-30T07:43:25;7.35;;;4.00;;
21810;SDS011;11067;48.788;9.208;2023-09-30T07:45:52;8.60;;;4.03;;
21810;SDS011;11067;48.788;9.208;2023-09-30T07:48:19;7.13;;;3.25;;
21810;SDS011;11067;48.788;9.208;2023-09-30T07:50:44;6.50;;;3.47;;
21810;SDS011;11067;48.788;9.208;2023-09-30T07:53:10;7.10;;;3.60;;
21810;SDS011;11067;48.788;9.208;2023-09-30T07:55:37;6.85;;;3.67;;
21810;SDS011;11067;48.788;9.208;2023-09-30T07:58:02;7.03;;;3.30;;
21810;SDS011;11067;48.788;9.208;2023-09-30T08:00:28;6.53;;;3.90;;
21810;SDS011;11067;48.788;9.208;2023-09-30T08:02:54;8.90;;;4.10;;
21810;SDS011;11067;48.788;9.208;2023-09-30T08:05:20;9.20;;;3.30;;
21810;SDS011;11067;48.788;9.208;2023-09-30T08:07:45;7.27;;;4.03;;
21810;SDS011;11067;48.788;9.208;2023-09-30T08:10:11;6.73;;;3.40;;
21810;SDS011;11067;48.788;9.208;2023-09-30T08:12:41;7.18;;;3.42;;
21810;SDS011;11067;48.788;9.208;2023-09-30T08:15:10;5.65;;;3.00;;
21810;SDS011;11067;48.788;9.208;2023-09-30T08:17:39;6.30;;;4.00;;
21810;SDS011;11067;48.788;9.208;2023-09-30T08:20:06;6.22;;;3.22;;
21810;SDS011;11067;48.788;9.208;2023-09-30T08:22:33;8.05;;;3.50;;
21810;SDS011;11067;48.788;9.208;2023-09-30T08:24:59;10.73;;;4.17;;
21810;SDS011;11067;48.788;9.208;2023-09-30T08:27:25;5.85;;;3.65;;
21810;SDS011;11067;48.788;9.208;2023-09-30T08:29:50;6.45;;;3.60;;
21810;SDS011;11067;48.788;9.208;2023-09-30T08:32:16;5.00;;;3.27;;
21810;SDS011;11067;48.788;9.208;2023-09-30T08:34:41;7.07;;;3.53;;
21810;SDS011;11067;48.788;9.208;2023-09-30T08:37:07;7.57;;;3.60;;
21810;SDS011;11067;48.788;9.208;2023-09-30T08:39:32;7.80;;;3.50;;
21810;SDS011;11067;48.788;9.208;2023-09-30T08:42:03;10.80;;;4.10;;
21810;SDS011;11067;48.788;9.208;2023-09-30T08:44:33;8.93;;;3.60;;
21810;SDS011;11067;48.788;9.208;2023-09-30T08:47:00;6.63;;;3.25;;
21810;SDS011;11067;48.788;9.208;2023-09-30T08:49:26;8.05;;;3.80;;
21810;SDS011;11067;48.788;9.208;2023-09-30T08:51:52;6.97;;;3.30;;
21810;SDS011;11067;48.788;9.208;2023-09-30T08:54:21;7.38;;;3.60;;
21810;SDS011;11067;48.788;9.208;2023-09-30T08:56:48;8.65;;;3.85;;
21810;SDS011;11067;48.788;9.208;2023-09-30T08:59:14;8.23;;;3.45;;
21810;SDS011;11067;48.788;9.208;2023-09-30T09:01:40;8.02;;;4.05;;
21810;SDS011;11067;48.788;9.208;2023-09-30T09:04:06;9.60;;;4.10;;
21810;SDS011;11067;48.788;9.208;2023-09-30T09:06:32;8.07;;;3.97;;
21810;SDS011;11067;48.788;9.208;2023-09-30T09:09:16;8.73;;;4.40;;
21810;SDS011;11067;48.788;9.208;2023-09-30T09:11:45;9.60;;;3.60;;
21810;SDS011;11067;48.788;9.208;2023-09-30T09:14:11;6.38;;;4.18;;
21810;SDS011;11067;48.788;9.208;2023-09-30T09:16:37;8.47;;;4.27;;
21810;SDS011;11067;48.788;9.208;2023-09-30T09:19:15;9.87;;;3.97;;
21810;SDS011;11067;48.788;9.208;2023-09-30T09:21:52;6.80;;;3.70;;
21810;SDS011;11067;48.788;9.208;2023-09-30T09:24:41;8.20;;;4.15;;
21810;SDS011;11067;48.788;9.208;2023-09-30T09:27:12;8.07;;;3.80;;
21810;SDS011;11067;48.788;9.208;2023-09-30T09:29:41;9.05;;;4.22;;
21810;SDS011;11067;48.788;9.208;2023-09-30T09:32:13;8.25;;;4.10;;
21810;SDS011;11067;48.788;9.208;2023-09-30T09:34:44;7.93;;;3.90;;
21810;SDS011;11067;48.788;9.208;2023-09-30T09:37:24;6.60;;;3.65;;
21810;SDS011;11067;48.788;9.208;2023-09-30T09:39:53;5.97;;;3.40;;
21810;SDS011;11067;48.788;9.208;2023-09-30T09:42:28;6.43;;;3.65;;
21810;SDS011;11067;48.788;9.208;2023-09-30T09:44:56;9.83;;;4.00;;
21810;SDS011;11067;48.788;9.208;2023-09-30T09:47:23;9.83;;;3.87;;
21810;SDS011;11067;48.788;9.208;2023-09-30T09:49:51;6.13;;;3.63;;
21810;SDS011;11067;48.788;9.208;2023-09-30T09:52:18;6.60;;;3.20;;
21810;SDS011;11067;48.788;9.208;2023-09-30T09:54:45;6.33;;;3.30;;
21810;SDS011;11067;48.788;9.208;2023-09-30T09:57:11;8.52;;;3.70;;
21810;SDS011;11067;48.788;9.208;2023-09-30T09:59:40;7.40;;;3.25;;
21810;SDS011;11067;48.788;9.208;2023-09-30T10:02:10;6.53;;;3.47;;
21810;SDS011;11067;48.788;9.208;2023-09-30T10:04:39;7.40;;;3.42;;
21810;SDS011;11067;48.788;9.208;2023-09-30T10:07:10;6.30;;;3.33;;
21810;SDS011;11067;48.788;9.208;2023-09-30T10:09:46;6.95;;;3.70;;
21810;SDS011;11067;48.788;9.208;2023-09-30T10:12:15;6.38;;;3.10;;
21810;SDS011;11067;48.788;9.208;2023-09-30T10:14:41;7.70;;;4.07;;
21810;SDS011;11067;48.788;9.208;2023-09-30T10:17:07;6.53;;;3.35;;
21810;SDS011;11067;48.788;9.208;2023-09-30T10:19:33;7.37;;;3.60;;
21810;SDS011;11067;48.788;9.208;2023-09-30T10:24:42;5.90;;;3.70;;
21810;SDS011;11067;48.788;9.208;2023-09-30T10:30:18;5.40;;;3.17;;
21810;SDS011;11067;48.788;9.208;2023-09-30T10:35:18;7.78;;;3.78;;
21810;SDS011;11067;48.788;9.208;2023-09-30T10:37:45;6.72;;;3.47;;
21810;SDS011;11067;48.788;9.208;2023-09-30T10:40:27;8.95;;;3.88;;
21810;SDS011;11067;48.788;9.208;2023-09-30T10:42:55;8.48;;;3.45;;
21810;SDS011;11067;48.788;9.208;2023-09-30T10:50:53;6.35;;;3.70;;
21810;SDS011;11067;48.788;9.208;2023-09-30T10:53:20;8.70;;;4.18;;
21810;SDS011;11067;48.788;9.208;2023-09-30T10:55:46;7.63;;;3.90;;
21810;SDS011;11067;48.788;9.208;2023-09-30T10:58:12;8.57;;;3.80;;
21810;SDS011;11067;48.788;9.208;2023-09-30T11:00:38;7.37;;;3.67;;
21810;SDS011;11067;48.788;9.208;2023-09-30T11:03:04;10.73;;;4.50;;
21810;SDS011;11067;48.788;9.208;2023-09-30T11:05:30;6.97;;;4.03;;
21810;SDS011;11067;48.788;9.208;2023-09-30T11:07:59;7.80;;;3.20;;
21810;SDS011;11067;48.788;9.208;2023-09-30T11:10:28;8.15;;;3.55;;
21810;SDS011;11067;48.788;9.208;2023-09-30T11:12:54;6.77;;;3.73;;
21810;SDS011;11067;48.788;9.208;2023-09-30T11:15:20;6.07;;;3.60;;
21810;SDS011;11067;48.788;9.208;2023-09-30T11:17:46;7.73;;;3.77;;
21810;SDS011;11067;48.788;9.208;2023-09-30T11:20:11;6.97;;;3.83;;
21810;SDS011;11067;48.788;9.208;2023-09-30T11:22:37;9.20;;;3.80;;
21810;SDS011;11067;48.788;9.208;2023-09-30T11:25:04;6.88;;;3.63;;
21810;SDS011;11067;48.788;9.208;2023-09-30T11:27:30;7.38;;;3.45;;
21810;SDS011;11067;48.788;9.208;2023-09-30T11:29:56;8.38;;;3.70;;
21810;SDS011;11067;48.788;9.208;2023-09-30T11:32:24;8.35;;;3.50;;
21810;SDS011;11067;48.788;9.208;2023-09-30T11:34:54;9.13;;;3.53;;
21810;SDS011;11067;48.788;9.208;2023-09-30T11:37:20;8.37;;;3.67;;
21810;SDS011;11067;48.788;9.208;2023-09-30T11:39:46;8.63;;;3.78;;
21810;SDS011;11067;48.788;9.208;2023-09-30T11:42:15;7.82;;;3.38;;
21810;SDS011;11067;48.788;9.208;2023-09-30T11:44:48;6.10;;;3.22;;
21810;SDS011;11067;48.788;9.208;2023-09-30T11:47:15;7.45;;;3.17;;
21810;SDS011;11067;48.788;9.208;2023-09-30T11:49:45;6.68;;;3.55;;
21810;SDS011;11067;48.788;9.208;2023-09-30T11:52:25;8.82;;;3.95;;
21810;SDS011;11067;48.788;9.208;2023-09-30T11:54:51;5.60;;;3.33;;
21810;SDS011;11067;48.788;9.208;2023-09-30T11:57:18;6.22;;;3.33;;
21810;SDS011;11067;48.788;9.208;2023-09-30T11:59:44;8.95;;;3.55;;
21810;SDS011;11067;48.788;9.208;2023-09-30T12:02:11;6.80;;;3.20;;
21810;SDS011;11067;48.788;9.208;2023-09-30T12:04:37;8.75;;;3.42;;
21810;SDS011;11067;48.788;9.208;2023-09-30T12:07:03;6.82;;;3.60;;
21810;SDS011;11067;48.788;9.208;2023-09-30T12:09:29;5.82;;;3.20;;
21810;SDS011;11067;48.788;9.208;2023-09-30T12:11:56;9.32;;;3.63;;
21810;SDS011;11067;48.788;9.208;2023-09-30T12:14:22;7.20;;;3.42;;
21810;SDS011;11067;48.788;9.208;2023-09-30T12:16:49;7.53;;;3.20;;
21810;SDS011;11067;48.788;9.208;2023-09-30T12:19:15;7.97;;;3.70;;
21810;SDS011;11067;48.788;9.208;2023-09-30T12:21:42;7.07;;;3.88;;
21810;SDS011;11067;48.788;9.208;2023-09-30T12:24:11;6.90;;;3.40;;
21810;SDS011;11067;48.788;9.208;2023-09-30T12:26:41;9.45;;;3.88;;
21810;SDS011;11067;48.788;9.208;2023-09-30T12:29:16;8.25;;;3.72;;
21810;SDS011;11067;48.788;9.208;2023-09-30T12:31:47;7.65;;;3.45;;
21810;SDS011;11067;48.788;9.208;2023-09-30T12:34:13;9.35;;;3.92;;
21810;SDS011;11067;48.788;9.208;2023-09-30T12:36:40;8.40;;;3.73;;
21810;SDS011;11067;48.788;9.208;2023-09-30T12:39:06;7.00;;;3.38;;
21810;SDS011;11067;48.788;9.208;2023-09-30T12:41:44;7.18;;;3.50;;
21810;SDS011;11067;48.788;9.208;2023-09-30T12:44:10;8.37;;;3.20;;
21810;SDS011;11067;48.788;9.208;2023-09-30T12:46:36;8.33;;;3.63;;
21810;SDS011;11067;48.788;9.208;2023-09-30T12:49:04;7.85;;;3.63;;
21810;SDS011;11067;48.788;9.208;2023-09-30T12:51:30;6.97;;;3.17;;
21810;SDS011;11067;48.788;9.208;2023-09-30T12:53:56;6.90;;;3.30;;
21810;SDS011;11067;48.788;9.208;2023-09-30T12:56:22;7.10;;;3.17;;
21810;SDS011;11067;48.788;9.208;2023-09-30T12:58:48;7.03;;;3.58;;
21810;SDS011;11067;48.788;9.208;2023-09-30T13:01:14;6.70;;;3.13;;
21810;SDS011;11067;48.788;9.208;2023-09-30T13:03:39;7.90;;;3.30;;
21810;SDS011;11067;48.788;9.208;2023-09-30T13:06:05;7.93;;;3.50;;
21810;SDS011;11067;48.788;9.208;2023-09-30T13:08:30;7.93;;;3.50;;
21810;SDS011;11067;48.788;9.208;2023-09-30T13:10:59;6.18;;;3.03;;
21810;SDS011;11067;48.788;9.208;2023-09-30T13:13:27;7.70;;;3.07;;
21810;SDS011;11067;48.788;9.208;2023-09-30T13:15:54;8.25;;;3.80;;
21810;SDS011;11067;48.788;9.208;2023-09-30T13:18:19;8.02;;;3.42;;
21810;SDS011;11067;48.788;9.208;2023-09-30T13:20:45;6.60;;;3.10;;
21810;SDS011;11067;48.788;9.208;2023-09-30T13:23:10;5.87;;;3.13;;
21810;SDS011;11067;48.788;9.208;2023-09-30T13:25:35;7.40;;;3.33;;
21810;SDS011;11067;48.788;9.208;2023-09-30T13:28:01;6.90;;;3.23;;
21810;SDS011;11067;48.788;9.208;2023-09-30T13:30:27;6.05;;;3.10;;
21810;SDS011;11067;48.788;9.208;2023-09-30T13:32:52;6.97;;;3.27;;
21810;SDS011;11067;48.788;9.208;2023-09-30T13:35:18;8.15;;;3.58;;
21810;SDS011;11067;48.788;9.208;2023-09-30T13:37:43;7.40;;;3.23;;
21810;SDS011;11067;48.788;9.208;2023-09-30T13:40:09;6.75;;;2.92;;
21810;SDS011;11067;48.788;9.208;2023-09-30T13:42:36;6.82;;;3.20;;
21810;SDS011;11067;48.788;9.208;2023-09-30T13:45:02;7.38;;;3.50;;
21810;SDS011;11067;48.788;9.208;2023-09-30T13:47:28;6.75;;;3.50;;
21810;SDS011;11067;48.788;9.208;2023-09-30T13:49:54;8.67;;;3.53;;
21810;SDS011;11067;48.788;9.208;2023-09-30T13:52:20;8.80;;;3.40;;
21810;SDS011;11067;48.788;9.208;2023-09-30T13:54:45;6.88;;;3.25;;
21810;SDS011;11067;48.788;9.208;2023-09-30T13:57:12;8.95;;;3.80;;
21810;SDS011;11067;48.788;9.208;2023-09-30T13:59:39;6.40;;;3.30;;
21810;SDS011;11067;48.788;9.208;2023-09-30T14:02:04;7.20;;;3.67;;
21810;SDS011;11067;48.788;9.208;2023-09-30T14:04:30;7.83;;;4.00;;
21810;SDS011;11067;48.788;9.208;2023-09-30T14:07:00;7.50;;;3.70;;
21810;SDS011;11067;48.788;9.208;2023-09-30T14:09:27;10.75;;;3.75;;
21810;SDS011;11067;48.788;9.208;2023-09-30T14:11:53;8.73;;;3.40;;
21810;SDS011;11067;48.788;9.208;2023-09-30T14:14:18;9.37;;;3.90;;
21810;SDS011;11067;48.788;9.208;2023-09-30T14:16:44;9.33;;;3.43;;
21810;SDS011;11067;48.788;9.208;2023-09-30T14:19:09;6.82;;;3.53;;
21810;SDS011;11067;48.788;9.208;2023-09-30T14:21:35;6.93;;;3.40;;
21810;SDS011;11067;48.788;9.208;2023-09-30T14:24:00;8.10;;;3.38;;
21810;SDS011;11067;48.788;9.208;2023-09-30T14:26:27;10.48;;;3.47;;
21810;SDS011;11067;48.788;9.208;2023-09-30T14:28:52;7.22;;;3.47;;
21810;SDS011;11067;48.788;9.208;2023-09-30T14:31:19;7.70;;;3.15;;
21810;SDS011;11067;48.788;9.208;2023-09-30T14:33:44;7.27;;;3.10;;
21810;SDS011;11067;48.788;9.208;2023-09-30T14:36:10;7.93;;;3.58;;
21810;SDS011;11067;48.788;9.208;2023-09-30T14:38:35;11.05;;;3.90;;
21810;SDS011;11067;48.788;9.208;2023-09-30T14:41:06;8.60;;;3.50;;
21810;SDS011;11067;48.788;9.208;2023-09-30T14:43:33;7.87;;;3.50;;
21810;SDS011;11067;48.788;9.208;2023-09-30T14:46:01;8.20;;;3.60;;
21810;SDS011;11067;48.788;9.208;2023-09-30T14:48:27;7.25;;;3.22;;
21810;SDS011;11067;48.788;9.208;2023-09-30T14:50:53;8.30;;;3.40;;
21810;SDS011;11067;48.788;9.208;2023-09-30T14:53:18;6.38;;;3.58;;
21810;SDS011;11067;48.788;9.208;2023-09-30T14:55:44;9.18;;;3.78;;
21810;SDS011;11067;48.788;9.208;2023-09-30T14:58:10;7.70;;;3.50;;
21810;SDS011;11067;48.788;9.208;2023-09-30T15:00:35;6.82;;;3.40;;